sensor_id;sensor_type;location;lat;lon;timestamp;pressure;altitude;pressure_sealevel;temperature;humidity
76358;BME280;65185;21.060;105.826;2023-12-20T00:01:04;102673.31;;;14.85;70.90
76358;BME280;65185;21.060;105.826;2023-12-20T00:03:31;102674.25;;;14.88;70.98
76358;BME280;65185;21.060;105.826;2023-12-20T00:05:58;102680.31;;;14.89;70.32
76358;BME280;65185;21.060;105.826;2023-12-20T00:08:25;102688.16;;;14.90;69.97
76358;BME280;65185;21.060;105.826;2023-12-20T00:10:52;102696.88;;;14.92;69.62
76358;BME280;65185;21.060;105.826;2023-12-20T00:13:19;102706.47;;;14.93;68.83
76358;BME280;65185;21.060;105.826;2023-12-20T00:15:47;102717.75;;;14.92;69.23
76358;BME280;65185;21.060;105.826;2023-12-20T00:18:14;102714.28;;;14.92;70.01
76358;BME280;65185;21.060;105.826;2023-12-20T00:20:41;102724.75;;;14.95;69.69
76358;BME280;65185;21.060;105.826;2023-12-20T00:23:08;102732.56;;;14.93;68.55
76358;BME280;65185;21.060;105.826;2023-12-20T00:25:35;102729.97;;;14.93;68.89
76358;BME280;65185;21.060;105.826;2023-12-20T00:28:02;102726.53;;;14.97;69.55
76358;BME280;65185;21.060;105.826;2023-12-20T00:30:30;102736.09;;;14.97;68.32
76358;BME280;65185;21.060;105.826;2023-12-20T00:32:57;102741.28;;;14.94;68.54
76358;BME280;65185;21.060;105.826;2023-12-20T00:35:24;102753.47;;;14.96;68.97
76358;BME280;65185;21.060;105.826;2023-12-20T00:37:51;102754.34;;;14.95;67.61
76358;BME280;65185;21.060;105.826;2023-12-20T00:40:18;102757.81;;;14.96;67.12
76358;BME280;65185;21.060;105.826;2023-12-20T00:42:45;102764.81;;;14.97;66.34
76358;BME280;65185;21.060;105.826;2023-12-20T00:45:13;102757.84;;;14.97;66.71
76358;BME280;65185;21.060;105.826;2023-12-20T00:47:40;102760.47;;;15.00;65.88
76358;BME280;65185;21.060;105.826;2023-12-20T00:50:08;102761.31;;;14.98;66.36
76358;BME280;65185;21.060;105.826;2023-12-20T00:52:35;102762.16;;;14.94;66.44
76358;BME280;65185;21.060;105.826;2023-12-20T00:55:03;102770.00;;;14.94;66.58
76358;BME280;65185;21.060;105.826;2023-12-20T00:57:31;102782.28;;;15.04;68.57
76358;BME280;65185;21.060;105.826;2023-12-20T00:59:58;102776.22;;;15.08;67.01
76358;BME280;65185;21.060;105.826;2023-12-20T01:02:25;102785.78;;;15.06;67.26
76358;BME280;65185;21.060;105.826;2023-12-20T01:04:52;102786.59;;;15.02;67.11
76358;BME280;65185;21.060;105.826;2023-12-20T01:07:19;102782.25;;;15.01;65.64
76358;BME280;65185;21.060;105.826;2023-12-20T01:09:46;102794.44;;;15.02;66.16
76358;BME280;65185;21.060;105.826;2023-12-20T01:12:14;102799.72;;;15.10;65.84
76358;BME280;65185;21.060;105.826;2023-12-20T01:14:41;102798.03;;;15.13;65.32
76358;BME280;65185;21.060;105.826;2023-12-20T01:17:08;102792.78;;;15.12;65.37
76358;BME280;65185;21.060;105.826;2023-12-20T01:19:35;102798.06;;;15.16;65.57
76358;BME280;65185;21.060;105.826;2023-12-20T01:22:02;102801.59;;;15.20;65.74
76358;BME280;65185;21.060;105.826;2023-12-20T01:24:29;102800.72;;;15.22;65.96
76358;BME280;65185;21.060;105.826;2023-12-20T01:26:56;102802.50;;;15.25;65.03
76358;BME280;65185;21.060;105.826;2023-12-20T01:29:23;102812.06;;;15.26;64.53
76358;BME280;65185;21.060;105.826;2023-12-20T01:31:50;102812.06;;;15.26;63.83
76358;BME280;65185;21.060;105.826;2023-12-20T01:34:18;102826.91;;;15.28;63.92
76358;BME280;65185;21.060;105.826;2023-12-20T01:36:45;102821.69;;;15.30;64.07
76358;BME280;65185;21.060;105.826;2023-12-20T01:39:12;102814.78;;;15.36;63.30
76358;BME280;65185;21.060;105.826;2023-12-20T01:41:40;102820.91;;;15.38;63.99
76358;BME280;65185;21.060;105.826;2023-12-20T01:44:07;102824.38;;;15.40;64.21
76358;BME280;65185;21.060;105.826;2023-12-20T01:46:33;102827.06;;;15.42;63.49
76358;BME280;65185;21.060;105.826;2023-12-20T01:49:01;102821.84;;;15.42;63.64
76358;BME280;65185;21.060;105.826;2023-12-20T01:51:28;102811.41;;;15.45;64.10
76358;BME280;65185;21.060;105.826;2023-12-20T01:53:57;102809.69;;;15.45;62.90
76358;BME280;65185;21.060;105.826;2023-12-20T01:56:27;102804.53;;;15.53;62.62
76358;BME280;65185;21.060;105.826;2023-12-20T01:58:56;102807.16;;;15.57;62.95
76358;BME280;65185;21.060;105.826;2023-12-20T02:01:24;102810.66;;;15.59;62.23
76358;BME280;65185;21.060;105.826;2023-12-20T02:03:51;102813.28;;;15.62;62.56
76358;BME280;65185;21.060;105.826;2023-12-20T02:06:19;102813.34;;;15.65;63.28
76358;BME280;65185;21.060;105.826;2023-12-20T02:08:50;102807.22;;;15.68;62.03
76358;BME280;65185;21.060;105.826;2023-12-20T02:11:17;102804.69;;;15.74;61.80
76358;BME280;65185;21.060;105.826;2023-12-20T02:13:44;102812.56;;;15.78;62.05
76358;BME280;65185;21.060;105.826;2023-12-20T02:16:11;102807.34;;;15.80;62.40
76358;BME280;65185;21.060;105.826;2023-12-20T02:18:39;102810.84;;;15.82;61.42
76358;BME280;65185;21.060;105.826;2023-12-20T02:21:07;102809.97;;;15.81;61.72
76358;BME280;65185;21.060;105.826;2023-12-20T02:23:33;102809.97;;;15.81;62.12
76358;BME280;65185;21.060;105.826;2023-12-20T02:26:00;102808.22;;;15.83;62.37
76358;BME280;65185;21.060;105.826;2023-12-20T02:28:28;102810.84;;;15.82;63.88
76358;BME280;65185;21.060;105.826;2023-12-20T02:30:55;102801.28;;;15.84;64.49
76358;BME280;65185;21.060;105.826;2023-12-20T02:33:23;102803.91;;;15.85;63.08
76358;BME280;65185;21.060;105.826;2023-12-20T02:35:50;102802.13;;;15.84;61.19
76358;BME280;65185;21.060;105.826;2023-12-20T02:38:19;102803.03;;;15.88;62.41
76358;BME280;65185;21.060;105.826;2023-12-20T02:40:45;102794.34;;;15.93;61.17
76358;BME280;65185;21.060;105.826;2023-12-20T02:43:12;102790.94;;;16.01;59.37
76358;BME280;65185;21.060;105.826;2023-12-20T02:45:39;102792.66;;;16.03;60.82
76358;BME280;65185;21.060;105.826;2023-12-20T02:48:07;102794.47;;;16.15;60.02
76358;BME280;65185;21.060;105.826;2023-12-20T02:50:34;102791.91;;;16.21;59.10
76358;BME280;65185;21.060;105.826;2023-12-20T02:53:01;102787.56;;;16.24;58.71
76358;BME280;65185;21.060;105.826;2023-12-20T02:55:28;102779.72;;;16.29;59.88
76358;BME280;65185;21.060;105.826;2023-12-20T02:57:55;102768.41;;;16.28;58.04
76358;BME280;65185;21.060;105.826;2023-12-20T03:00:22;102787.59;;;16.36;57.93
76358;BME280;65185;21.060;105.826;2023-12-20T03:02:50;102782.41;;;16.44;59.05
76358;BME280;65185;21.060;105.826;2023-12-20T03:05:17;102778.97;;;16.48;58.40
76358;BME280;65185;21.060;105.826;2023-12-20T03:07:44;102777.28;;;16.57;58.70
76358;BME280;65185;21.060;105.826;2023-12-20T03:10:12;102766.81;;;16.69;60.04
76358;BME280;65185;21.060;105.826;2023-12-20T03:12:39;102775.59;;;16.76;58.77
76358;BME280;65185;21.060;105.826;2023-12-20T03:15:07;102773.84;;;16.84;59.25
76358;BME280;65185;21.060;105.826;2023-12-20T03:17:34;102764.25;;;16.89;57.74
76358;BME280;65185;21.060;105.826;2023-12-20T03:20:01;102766.88;;;16.90;57.79
76358;BME280;65185;21.060;105.826;2023-12-20T03:22:28;102756.41;;;16.93;58.44
76358;BME280;65185;21.060;105.826;2023-12-20T03:24:55;102756.41;;;16.96;59.31
76358;BME280;65185;21.060;105.826;2023-12-20T03:27:22;102748.56;;;16.98;59.13
76358;BME280;65185;21.060;105.826;2023-12-20T03:29:49;102756.41;;;17.03;58.05
76358;BME280;65185;21.060;105.826;2023-12-20T03:32:16;102753.81;;;17.10;58.99
76358;BME280;65185;21.060;105.826;2023-12-20T03:34:43;102742.47;;;17.17;59.78
76358;BME280;65185;21.060;105.826;2023-12-20T03:37:10;102740.72;;;17.21;59.22
76358;BME280;65185;21.060;105.826;2023-12-20T03:39:37;102729.34;;;17.25;58.22
76358;BME280;65185;21.060;105.826;2023-12-20T03:42:04;102735.47;;;17.36;58.04
76358;BME280;65185;21.060;105.826;2023-12-20T03:44:31;102725.84;;;17.42;58.65
76358;BME280;65185;21.060;105.826;2023-12-20T03:46:58;102724.09;;;17.43;55.78
76358;BME280;65185;21.060;105.826;2023-12-20T03:49:25;102712.78;;;17.51;55.86
76358;BME280;65185;21.060;105.826;2023-12-20T03:51:52;102719.75;;;17.60;56.98
76358;BME280;65185;21.060;105.826;2023-12-20T03:54:19;102707.53;;;17.62;55.57
76358;BME280;65185;21.060;105.826;2023-12-20T03:56:46;102704.88;;;17.71;55.66
76358;BME280;65185;21.060;105.826;2023-12-20T03:59:13;102696.09;;;17.84;55.58
76358;BME280;65185;21.060;105.826;2023-12-20T04:01:43;102690.81;;;17.94;54.99
76358;BME280;65185;21.060;105.826;2023-12-20T04:04:11;102682.91;;;17.98;55.42
76358;BME280;65185;21.060;105.826;2023-12-20T04:06:38;102680.31;;;18.01;54.57
76358;BME280;65185;21.060;105.826;2023-12-20T04:09:05;102682.09;;;17.96;54.68
76358;BME280;65185;21.060;105.826;2023-12-20T04:11:32;102673.34;;;17.89;55.62
76358;BME280;65185;21.060;105.826;2023-12-20T04:13:59;102670.75;;;17.84;55.64
76358;BME280;65185;21.060;105.826;2023-12-20T04:16:27;102658.56;;;17.71;54.80
76358;BME280;65185;21.060;105.826;2023-12-20T04:18:54;102657.66;;;17.72;55.37
76358;BME280;65185;21.060;105.826;2023-12-20T04:21:20;102650.72;;;17.58;54.97
76358;BME280;65185;21.060;105.826;2023-12-20T04:23:47;102661.22;;;17.46;55.13
76358;BME280;65185;21.060;105.826;2023-12-20T04:26:14;102648.09;;;17.43;57.10
76358;BME280;65185;21.060;105.826;2023-12-20T04:28:41;102644.59;;;17.42;56.91
76358;BME280;65185;21.060;105.826;2023-12-20T04:31:09;102643.72;;;17.45;57.16
76358;BME280;65185;21.060;105.826;2023-12-20T04:33:36;102642.00;;;17.39;57.84
76358;BME280;65185;21.060;105.826;2023-12-20T04:36:03;102633.28;;;17.40;58.73
76358;BME280;65185;21.060;105.826;2023-12-20T04:38:30;102630.66;;;17.37;59.67
76358;BME280;65185;21.060;105.826;2023-12-20T04:40:57;102623.66;;;17.32;60.06
76358;BME280;65185;21.060;105.826;2023-12-20T04:43:25;102608.84;;;17.31;59.72
76358;BME280;65185;21.060;105.826;2023-12-20T04:45:51;102599.25;;;17.27;61.09
76358;BME280;65185;21.060;105.826;2023-12-20T04:48:19;102604.47;;;17.33;60.05
76358;BME280;65185;21.060;105.826;2023-12-20T04:50:46;102599.22;;;17.34;60.73
76358;BME280;65185;21.060;105.826;2023-12-20T04:53:13;102589.63;;;17.35;60.40
76358;BME280;65185;21.060;105.826;2023-12-20T04:55:40;102584.38;;;17.36;60.64
76358;BME280;65185;21.060;105.826;2023-12-20T04:58:07;102573.88;;;17.32;59.03
76358;BME280;65185;21.060;105.826;2023-12-20T05:00:37;102573.03;;;17.30;59.01
76358;BME280;65185;21.060;105.826;2023-12-20T05:03:05;102571.28;;;17.35;59.32
76358;BME280;65185;21.060;105.826;2023-12-20T05:05:33;102559.88;;;17.43;59.42
76358;BME280;65185;21.060;105.826;2023-12-20T05:08:00;102549.41;;;17.52;59.26
76358;BME280;65185;21.060;105.826;2023-12-20T05:10:27;102538.00;;;17.64;59.79
76358;BME280;65185;21.060;105.826;2023-12-20T05:12:54;102538.81;;;17.73;57.80
76358;BME280;65185;21.060;105.826;2023-12-20T05:15:21;102526.47;;;17.89;58.06
76358;BME280;65185;21.060;105.826;2023-12-20T05:17:48;102519.44;;;17.99;56.83
76358;BME280;65185;21.060;105.826;2023-12-20T05:20:15;102513.28;;;18.03;57.48
76358;BME280;65185;21.060;105.826;2023-12-20T05:22:42;102499.19;;;18.14;57.41
76358;BME280;65185;21.060;105.826;2023-12-20T05:25:11;102493.88;;;18.25;56.78
76358;BME280;65185;21.060;105.826;2023-12-20T05:27:38;102484.19;;;18.33;56.48
76358;BME280;65185;21.060;105.826;2023-12-20T05:30:06;102488.56;;;18.31;57.56
76358;BME280;65185;21.060;105.826;2023-12-20T05:32:33;102478.00;;;18.38;58.13
76358;BME280;65185;21.060;105.826;2023-12-20T05:35:01;102470.13;;;18.44;60.52
76358;BME280;65185;21.060;105.826;2023-12-20T05:37:27;102464.00;;;18.39;62.96
76358;BME280;65185;21.060;105.826;2023-12-20T05:39:55;102453.44;;;18.50;64.22
76358;BME280;65185;21.060;105.826;2023-12-20T05:42:22;102455.13;;;18.55;64.60
76358;BME280;65185;21.060;105.826;2023-12-20T05:44:49;102449.13;;;18.44;64.66
76358;BME280;65185;21.060;105.826;2023-12-20T05:47:16;102459.81;;;18.20;63.94
76358;BME280;65185;21.060;105.826;2023-12-20T05:49:44;102450.28;;;18.07;65.66
76358;BME280;65185;21.060;105.826;2023-12-20T05:52:11;102456.44;;;18.02;64.70
76358;BME280;65185;21.060;105.826;2023-12-20T05:54:38;102453.81;;;18.05;63.35
76358;BME280;65185;21.060;105.826;2023-12-20T05:57:05;102445.03;;;18.07;63.22
76358;BME280;65185;21.060;105.826;2023-12-20T05:59:32;102430.13;;;18.11;63.37
76358;BME280;65185;21.060;105.826;2023-12-20T06:01:59;102424.06;;;18.07;64.41
76358;BME280;65185;21.060;105.826;2023-12-20T06:04:26;102417.97;;;18.04;65.96
76358;BME280;65185;21.060;105.826;2023-12-20T06:06:53;102409.22;;;18.05;67.30
76358;BME280;65185;21.060;105.826;2023-12-20T06:09:20;102410.84;;;18.16;67.88
76358;BME280;65185;21.060;105.826;2023-12-20T06:11:47;102407.31;;;18.22;66.92
76358;BME280;65185;21.060;105.826;2023-12-20T06:14:14;102397.66;;;18.24;65.11
76358;BME280;65185;21.060;105.826;2023-12-20T06:16:41;102385.44;;;18.24;65.24
76358;BME280;65185;21.060;105.826;2023-12-20T06:19:08;102395.06;;;18.22;64.87
76358;BME280;65185;21.060;105.826;2023-12-20T06:21:35;102380.06;;;18.35;66.27
76358;BME280;65185;21.060;105.826;2023-12-20T06:24:02;102389.84;;;18.21;66.08
76358;BME280;65185;21.060;105.826;2023-12-20T06:26:30;102383.69;;;18.25;67.71
76358;BME280;65185;21.060;105.826;2023-12-20T06:28:57;102388.16;;;18.14;67.96
76358;BME280;65185;21.060;105.826;2023-12-20T06:31:24;102383.88;;;18.02;67.81
76358;BME280;65185;21.060;105.826;2023-12-20T06:33:51;102378.75;;;17.88;68.36
76358;BME280;65185;21.060;105.826;2023-12-20T06:36:24;102383.16;;;17.88;68.25
76358;BME280;65185;21.060;105.826;2023-12-20T06:38:51;102372.63;;;17.86;69.67
76358;BME280;65185;21.060;105.826;2023-12-20T06:41:18;102367.41;;;17.88;70.71
76358;BME280;65185;21.060;105.826;2023-12-20T06:43:45;102356.03;;;17.89;69.04
76358;BME280;65185;21.060;105.826;2023-12-20T06:46:12;102346.47;;;17.82;69.41
76358;BME280;65185;21.060;105.826;2023-12-20T06:48:39;102352.66;;;17.76;68.73
76358;BME280;65185;21.060;105.826;2023-12-20T06:51:10;102347.41;;;17.75;68.87
76358;BME280;65185;21.060;105.826;2023-12-20T06:53:37;102354.41;;;17.74;69.81
76358;BME280;65185;21.060;105.826;2023-12-20T06:56:04;102350.09;;;17.67;69.70
76358;BME280;65185;21.060;105.826;2023-12-20T06:58:33;102346.63;;;17.65;71.25
76358;BME280;65185;21.060;105.826;2023-12-20T07:01:00;102334.41;;;17.61;70.46
76358;BME280;65185;21.060;105.826;2023-12-20T07:03:27;102336.25;;;17.49;71.13
76358;BME280;65185;21.060;105.826;2023-12-20T07:05:54;102330.16;;;17.44;71.48
76358;BME280;65185;21.060;105.826;2023-12-20T07:08:21;102329.31;;;17.40;72.01
76358;BME280;65185;21.060;105.826;2023-12-20T07:10:49;102328.41;;;17.43;72.32
76358;BME280;65185;21.060;105.826;2023-12-20T07:13:16;102317.03;;;17.51;72.74
76358;BME280;65185;21.060;105.826;2023-12-20T07:15:42;102309.06;;;17.62;72.33
76358;BME280;65185;21.060;105.826;2023-12-20T07:18:10;102301.94;;;17.76;71.94
76358;BME280;65185;21.060;105.826;2023-12-20T07:20:37;102297.50;;;17.85;70.91
76358;BME280;65185;21.060;105.826;2023-12-20T07:23:04;102296.47;;;18.00;71.64
76358;BME280;65185;21.060;105.826;2023-12-20T07:25:31;102294.72;;;18.02;73.21
76358;BME280;65185;21.060;105.826;2023-12-20T07:27:58;102286.03;;;17.94;74.65
76358;BME280;65185;21.060;105.826;2023-12-20T07:30:25;102288.78;;;17.83;74.03
76358;BME280;65185;21.060;105.826;2023-12-20T07:32:53;102295.03;;;17.69;74.26
76358;BME280;65185;21.060;105.826;2023-12-20T07:35:20;102300.31;;;17.66;77.16
76358;BME280;65185;21.060;105.826;2023-12-20T07:37:47;102294.16;;;17.67;78.01
76358;BME280;65185;21.060;105.826;2023-12-20T07:40:14;102280.16;;;17.71;78.92
76358;BME280;65185;21.060;105.826;2023-12-20T07:42:43;102279.25;;;17.75;80.49
76358;BME280;65185;21.060;105.826;2023-12-20T07:45:10;102282.72;;;17.75;79.39
76358;BME280;65185;21.060;105.826;2023-12-20T07:47:37;102277.47;;;17.78;79.80
76358;BME280;65185;21.060;105.826;2023-12-20T07:50:05;102269.56;;;17.84;80.87
76358;BME280;65185;21.060;105.826;2023-12-20T07:52:32;102275.69;;;17.82;76.77
76358;BME280;65185;21.060;105.826;2023-12-20T07:54:59;102268.59;;;17.88;78.75
76358;BME280;65185;21.060;105.826;2023-12-20T07:57:30;102272.09;;;17.90;77.96
76358;BME280;65185;21.060;105.826;2023-12-20T07:59:59;102272.94;;;17.96;78.52
76358;BME280;65185;21.060;105.826;2023-12-20T08:02:25;102267.66;;;17.99;75.96
76358;BME280;65185;21.060;105.826;2023-12-20T08:04:52;102261.50;;;18.01;76.49
76358;BME280;65185;21.060;105.826;2023-12-20T08:07:18;102262.34;;;18.02;78.46
76358;BME280;65185;21.060;105.826;2023-12-20T08:09:45;102269.38;;;18.01;78.06
76358;BME280;65185;21.060;105.826;2023-12-20T08:12:11;102261.50;;;18.01;80.08
76358;BME280;65185;21.060;105.826;2023-12-20T08:14:38;102266.81;;;17.95;73.91
76358;BME280;65185;21.060;105.826;2023-12-20T08:17:04;102263.28;;;17.96;73.70
76358;BME280;65185;21.060;105.826;2023-12-20T08:19:31;102265.88;;;17.98;72.67
76358;BME280;65185;21.060;105.826;2023-12-20T08:21:58;102265.00;;;18.00;73.86
76358;BME280;65185;21.060;105.826;2023-12-20T08:24:24;102255.41;;;17.99;73.20
76358;BME280;65185;21.060;105.826;2023-12-20T08:26:51;102263.25;;;17.98;69.04
76358;BME280;65185;21.060;105.826;2023-12-20T08:29:18;102256.25;;;18.01;68.65
76358;BME280;65185;21.060;105.826;2023-12-20T08:31:44;102269.34;;;18.03;69.74
76358;BME280;65185;21.060;105.826;2023-12-20T08:34:12;102269.38;;;18.01;69.84
76358;BME280;65185;21.060;105.826;2023-12-20T08:36:40;102263.22;;;18.02;68.47
76358;BME280;65185;21.060;105.826;2023-12-20T08:39:07;102285.09;;;18.00;67.07
76358;BME280;65185;21.060;105.826;2023-12-20T08:41:35;102281.59;;;18.02;69.07
76358;BME280;65185;21.060;105.826;2023-12-20T08:44:03;102282.47;;;18.00;71.52
76358;BME280;65185;21.060;105.826;2023-12-20T08:46:29;102280.78;;;17.94;68.55
76358;BME280;65185;21.060;105.826;2023-12-20T08:48:56;102289.56;;;17.93;69.06
76358;BME280;65185;21.060;105.826;2023-12-20T08:51:23;102280.88;;;17.86;67.85
76358;BME280;65185;21.060;105.826;2023-12-20T08:53:51;102278.31;;;17.82;67.17
76358;BME280;65185;21.060;105.826;2023-12-20T08:56:18;102276.53;;;17.81;68.46
76358;BME280;65185;21.060;105.826;2023-12-20T08:58:45;102280.03;;;17.83;69.97
76358;BME280;65185;21.060;105.826;2023-12-20T09:01:13;102283.56;;;17.80;71.83
76358;BME280;65185;21.060;105.826;2023-12-20T09:03:39;102281.84;;;17.76;70.89
76358;BME280;65185;21.060;105.826;2023-12-20T09:06:06;102283.63;;;17.74;68.06
76358;BME280;65185;21.060;105.826;2023-12-20T09:08:33;102281.00;;;17.73;69.96
76358;BME280;65185;21.060;105.826;2023-12-20T09:11:00;102274.06;;;17.67;68.79
76358;BME280;65185;21.060;105.826;2023-12-20T09:13:26;102279.34;;;17.66;70.24
76358;BME280;65185;21.060;105.826;2023-12-20T09:15:57;102283.72;;;17.61;70.07
76358;BME280;65185;21.060;105.826;2023-12-20T09:18:24;102282.94;;;17.53;69.33
76358;BME280;65185;21.060;105.826;2023-12-20T09:20:50;102296.06;;;17.53;70.33
76358;BME280;65185;21.060;105.826;2023-12-20T09:23:17;102289.94;;;17.51;69.56
76358;BME280;65185;21.060;105.826;2023-12-20T09:25:44;102287.34;;;17.49;69.35
76358;BME280;65185;21.060;105.826;2023-12-20T09:28:10;102290.81;;;17.48;69.49
76358;BME280;65185;21.060;105.826;2023-12-20T09:30:37;102288.19;;;17.50;72.68
76358;BME280;65185;21.060;105.826;2023-12-20T09:33:05;102296.06;;;17.47;71.57
76358;BME280;65185;21.060;105.826;2023-12-20T09:35:33;102291.72;;;17.43;71.00
76358;BME280;65185;21.060;105.826;2023-12-20T09:37:59;102295.25;;;17.36;69.65
76358;BME280;65185;21.060;105.826;2023-12-20T09:40:26;102297.91;;;17.34;69.29
76358;BME280;65185;21.060;105.826;2023-12-20T09:43:11;102296.19;;;17.30;69.59
76358;BME280;65185;21.060;105.826;2023-12-20T09:45:40;102297.06;;;17.28;70.64
76358;BME280;65185;21.060;105.826;2023-12-20T09:48:07;102303.22;;;17.25;70.41
76358;BME280;65185;21.060;105.826;2023-12-20T09:50:37;102300.59;;;17.24;71.95
76358;BME280;65185;21.060;105.826;2023-12-20T09:53:05;102302.34;;;17.25;72.89
76358;BME280;65185;21.060;105.826;2023-12-20T09:55:36;102305.84;;;17.21;73.10
76358;BME280;65185;21.060;105.826;2023-12-20T09:58:03;102310.22;;;17.19;73.84
76358;BME280;65185;21.060;105.826;2023-12-20T10:00:29;102308.50;;;17.18;75.62
76358;BME280;65185;21.060;105.826;2023-12-20T10:03:00;102313.78;;;17.15;75.57
76358;BME280;65185;21.060;105.826;2023-12-20T10:05:27;102308.53;;;17.12;76.14
76358;BME280;65185;21.060;105.826;2023-12-20T10:07:54;102309.41;;;17.08;77.43
76358;BME280;65185;21.060;105.826;2023-12-20T10:10:21;102321.66;;;17.07;76.53
76358;BME280;65185;21.060;105.826;2023-12-20T10:13:05;102326.91;;;17.07;76.07
76358;BME280;65185;21.060;105.826;2023-12-20T10:15:33;102333.03;;;17.05;76.76
76358;BME280;65185;21.060;105.826;2023-12-20T10:18:01;102335.63;;;17.05;77.23
76358;BME280;65185;21.060;105.826;2023-12-20T10:20:28;102340.03;;;17.01;75.90
76358;BME280;65185;21.060;105.826;2023-12-20T10:22:56;102340.88;;;17.00;76.41
76358;BME280;65185;21.060;105.826;2023-12-20T10:25:23;102348.75;;;17.03;76.82
76358;BME280;65185;21.060;105.826;2023-12-20T10:27:57;102353.09;;;17.04;76.89
76358;BME280;65185;21.060;105.826;2023-12-20T10:30:34;102360.09;;;17.04;76.74
76358;BME280;65185;21.060;105.826;2023-12-20T10:33:01;102366.19;;;17.04;78.43
76358;BME280;65185;21.060;105.826;2023-12-20T10:35:28;102360.94;;;17.04;77.93
76358;BME280;65185;21.060;105.826;2023-12-20T10:37:56;102360.97;;;17.01;76.84
76358;BME280;65185;21.060;105.826;2023-12-20T10:40:22;102370.59;;;16.98;76.17
76358;BME280;65185;21.060;105.826;2023-12-20T10:42:50;102369.72;;;16.97;76.30
76358;BME280;65185;21.060;105.826;2023-12-20T10:45:17;102368.84;;;16.96;75.43
76358;BME280;65185;21.060;105.826;2023-12-20T10:47:46;102369.75;;;16.94;74.66
76358;BME280;65185;21.060;105.826;2023-12-20T10:50:13;102363.63;;;16.98;74.72
76358;BME280;65185;21.060;105.826;2023-12-20T10:52:41;102361.88;;;16.97;74.44
76358;BME280;65185;21.060;105.826;2023-12-20T10:55:08;102373.19;;;16.99;73.82
76358;BME280;65185;21.060;105.826;2023-12-20T10:57:36;102378.44;;;17.01;74.76
76358;BME280;65185;21.060;105.826;2023-12-20T11:00:03;102384.53;;;17.01;75.45
76358;BME280;65185;21.060;105.826;2023-12-20T11:02:33;102384.56;;;16.98;73.97
76358;BME280;65185;21.060;105.826;2023-12-20T11:07:50;102396.78;;;16.98;74.86
76358;BME280;65185;21.060;105.826;2023-12-20T11:10:55;102401.13;;;16.98;73.16
76358;BME280;65185;21.060;105.826;2023-12-20T11:14:13;102400.28;;;17.00;74.03
76358;BME280;65185;21.060;105.826;2023-12-20T11:16:13;102392.41;;;17.00;73.73
76358;BME280;65185;21.060;105.826;2023-12-20T11:18:40;102397.66;;;17.00;73.68
76358;BME280;65185;21.060;105.826;2023-12-20T11:21:08;102396.75;;;17.01;73.42
76358;BME280;65185;21.060;105.826;2023-12-20T11:23:35;102398.50;;;16.98;74.53
76358;BME280;65185;21.060;105.826;2023-12-20T11:26:02;102409.00;;;17.02;73.84
76358;BME280;65185;21.060;105.826;2023-12-20T11:28:29;102408.13;;;17.01;73.45
76358;BME280;65185;21.060;105.826;2023-12-20T11:30:57;102412.47;;;17.01;73.81
76358;BME280;65185;21.060;105.826;2023-12-20T11:33:32;102415.97;;;16.96;72.55
76358;BME280;65185;21.060;105.826;2023-12-20T11:36:01;102415.97;;;16.96;73.56
76358;BME280;65185;21.060;105.826;2023-12-20T11:38:37;102416.84;;;16.98;73.15
76358;BME280;65185;21.060;105.826;2023-12-20T11:41:06;102417.72;;;16.99;72.84
76358;BME280;65185;21.060;105.826;2023-12-20T11:43:37;102407.25;;;16.98;73.36
76358;BME280;65185;21.060;105.826;2023-12-20T11:46:08;102416.00;;;16.98;72.60
76358;BME280;65185;21.060;105.826;2023-12-20T11:48:37;102410.75;;;16.98;72.35
76358;BME280;65185;21.060;105.826;2023-12-20T11:51:13;102417.72;;;16.99;71.94
76358;BME280;65185;21.060;105.826;2023-12-20T11:53:40;102415.09;;;17.01;71.98
76358;BME280;65185;21.060;105.826;2023-12-20T11:56:08;102420.31;;;17.02;73.14
76358;BME280;65185;21.060;105.826;2023-12-20T11:58:35;102417.72;;;17.01;73.09
76358;BME280;65185;21.060;105.826;2023-12-20T12:01:07;102422.09;;;17.02;73.20
76358;BME280;65185;21.060;105.826;2023-12-20T12:03:34;102411.63;;;17.02;73.89
76358;BME280;65185;21.060;105.826;2023-12-20T12:06:01;102415.09;;;16.99;72.30
76358;BME280;65185;21.060;105.826;2023-12-20T12:08:30;102422.09;;;16.97;72.06
76358;BME280;65185;21.060;105.826;2023-12-20T12:10:57;102423.84;;;16.98;72.96
76358;BME280;65185;21.060;105.826;2023-12-20T12:13:23;102436.91;;;16.96;72.79
76358;BME280;65185;21.060;105.826;2023-12-20T12:15:53;102443.03;;;16.97;72.86
76358;BME280;65185;21.060;105.826;2023-12-20T12:18:20;102434.31;;;16.98;73.31
76358;BME280;65185;21.060;105.826;2023-12-20T12:20:47;102448.25;;;16.98;74.05
76358;BME280;65185;21.060;105.826;2023-12-20T12:23:14;102456.09;;;17.00;73.49
76358;BME280;65185;21.060;105.826;2023-12-20T12:25:40;102455.25;;;17.00;72.37
76358;BME280;65185;21.060;105.826;2023-12-20T12:28:07;102464.84;;;16.99;73.13
76358;BME280;65185;21.060;105.826;2023-12-20T12:30:33;102465.75;;;16.98;72.54
76358;BME280;65185;21.060;105.826;2023-12-20T12:33:00;102470.13;;;16.96;73.08
76358;BME280;65185;21.060;105.826;2023-12-20T12:35:27;102474.47;;;16.94;72.37